Empire, Nevada
Current Conditions -  °F | °C
As of 6:53 AM on Saturday 20 Dec 2014 (Local Time) from KLOL Reporting Station
Light Rain Light Rain  
Wind Chill:   Ceiling: 2700
Heat Index:   Visibility: 2.5mi
Dew Point:   Wind: 0mph
Humidity: 97%   Direction: NA
Pressure: 30.1"   Gusts: NA
Location:  40.58°N, 119.34°W
Report Text: KLOL 201453Z AUTO 00000KT 2 1/2SM -RA BR FEW010 OVC027 02/02 A3010 RMK AO2 SLP209 P0003 60006 T00220017 53004
Loading
Personal Weather Stations






























Interactive Weather Map New forecast layout! Learn more

10-Day Weather Forecast

Advertisements
Track Severe Weather on mobile